sensor_id;sensor_type;location;lat;lon;timestamp;temperature;humidity
16229;DHT22;8222;51.462;12.630;2023-02-01T00:01:45;5.30;99.90
16229;DHT22;8222;51.462;12.630;2023-02-01T00:04:11;5.40;99.90
16229;DHT22;8222;51.462;12.630;2023-02-01T00:06:37;5.30;99.90
16229;DHT22;8222;51.462;12.630;2023-02-01T00:09:05;5.30;99.90
16229;DHT22;8222;51.462;12.630;2023-02-01T00:11:31;5.40;99.90
16229;DHT22;8222;51.462;12.630;2023-02-01T00:13:56;5.40;99.90
16229;DHT22;8222;51.462;12.630;2023-02-01T00:16:33;5.30;99.90
16229;DHT22;8222;51.462;12.630;2023-02-01T00:19:05;5.30;99.90
16229;DHT22;8222;51.462;12.630;2023-02-01T00:21:31;5.30;99.90
16229;DHT22;8222;51.462;12.630;2023-02-01T00:23:58;5.40;99.90
16229;DHT22;8222;51.462;12.630;2023-02-01T00:26:40;5.30;99.90
16229;DHT22;8222;51.462;12.630;2023-02-01T00:29:10;5.30;99.90
16229;DHT22;8222;51.462;12.630;2023-02-01T00:31:36;5.40;99.90
16229;DHT22;8222;51.462;12.630;2023-02-01T00:34:02;5.50;99.90
16229;DHT22;8222;51.462;12.630;2023-02-01T00:36:30;5.40;99.90
16229;DHT22;8222;51.462;12.630;2023-02-01T00:38:56;5.30;99.90
16229;DHT22;8222;51.462;12.630;2023-02-01T00:41:22;5.50;99.90
16229;DHT22;8222;51.462;12.630;2023-02-01T00:43:49;5.50;99.90
16229;DHT22;8222;51.462;12.630;2023-02-01T00:46:16;5.30;99.90
16229;DHT22;8222;51.462;12.630;2023-02-01T00:48:44;5.40;99.90
16229;DHT22;8222;51.462;12.630;2023-02-01T00:51:12;5.40;99.90
16229;DHT22;8222;51.462;12.630;2023-02-01T00:53:38;5.60;99.90
16229;DHT22;8222;51.462;12.630;2023-02-01T00:56:06;5.20;99.90
16229;DHT22;8222;51.462;12.630;2023-02-01T00:58:32;5.70;99.90
16229;DHT22;8222;51.462;12.630;2023-02-01T01:03:29;5.20;99.90
16229;DHT22;8222;51.462;12.630;2023-02-01T01:05:58;5.30;99.90
16229;DHT22;8222;51.462;12.630;2023-02-01T01:08:24;5.30;99.90
16229;DHT22;8222;51.462;12.630;2023-02-01T01:10:50;5.20;99.90
16229;DHT22;8222;51.462;12.630;2023-02-01T01:13:18;5.20;99.90
16229;DHT22;8222;51.462;12.630;2023-02-01T01:15:43;5.30;99.90
16229;DHT22;8222;51.462;12.630;2023-02-01T01:18:09;5.40;99.90
16229;DHT22;8222;51.462;12.630;2023-02-01T01:20:37;5.40;99.90
16229;DHT22;8222;51.462;12.630;2023-02-01T01:23:03;5.40;99.90
16229;DHT22;8222;51.462;12.630;2023-02-01T01:25:31;5.40;99.90
16229;DHT22;8222;51.462;12.630;2023-02-01T01:27:56;5.50;99.90
16229;DHT22;8222;51.462;12.630;2023-02-01T01:30:22;5.40;99.90
16229;DHT22;8222;51.462;12.630;2023-02-01T01:32:48;5.40;99.90
16229;DHT22;8222;51.462;12.630;2023-02-01T01:35:15;5.70;99.90
16229;DHT22;8222;51.462;12.630;2023-02-01T01:37:41;5.40;99.90
16229;DHT22;8222;51.462;12.630;2023-02-01T01:40:09;5.60;99.90
16229;DHT22;8222;51.462;12.630;2023-02-01T01:42:39;5.60;99.90
16229;DHT22;8222;51.462;12.630;2023-02-01T01:47:54;5.60;99.90
16229;DHT22;8222;51.462;12.630;2023-02-01T01:50:33;5.60;99.90
16229;DHT22;8222;51.462;12.630;2023-02-01T01:53:03;5.60;99.90
16229;DHT22;8222;51.462;12.630;2023-02-01T01:55:33;5.60;99.90
16229;DHT22;8222;51.462;12.630;2023-02-01T01:58:04;5.60;99.90
16229;DHT22;8222;51.462;12.630;2023-02-01T02:00:31;5.60;99.90
16229;DHT22;8222;51.462;12.630;2023-02-01T02:03:03;5.50;99.90
16229;DHT22;8222;51.462;12.630;2023-02-01T02:05:31;5.50;99.90
16229;DHT22;8222;51.462;12.630;2023-02-01T02:07:59;5.60;99.90
16229;DHT22;8222;51.462;12.630;2023-02-01T02:10:27;5.50;99.90
16229;DHT22;8222;51.462;12.630;2023-02-01T02:13:14;5.60;99.90
16229;DHT22;8222;51.462;12.630;2023-02-01T02:38:56;5.90;99.90
16229;DHT22;8222;51.462;12.630;2023-02-01T02:44:43;6.00;99.90
16229;DHT22;8222;51.462;12.630;2023-02-01T02:50:27;6.10;99.90
16229;DHT22;8222;51.462;12.630;2023-02-01T02:53:18;6.20;99.90
16229;DHT22;8222;51.462;12.630;2023-02-01T02:56:06;6.20;99.90
16229;DHT22;8222;51.462;12.630;2023-02-01T02:58:52;6.30;99.90
16229;DHT22;8222;51.462;12.630;2023-02-01T03:01:38;6.30;99.90
16229;DHT22;8222;51.462;12.630;2023-02-01T03:04:22;6.40;99.90
16229;DHT22;8222;51.462;12.630;2023-02-01T03:06:49;6.30;99.90
16229;DHT22;8222;51.462;12.630;2023-02-01T03:09:30;6.30;99.90
16229;DHT22;8222;51.462;12.630;2023-02-01T03:12:01;6.40;99.90
16229;DHT22;8222;51.462;12.630;2023-02-01T03:14:50;6.50;99.90
16229;DHT22;8222;51.462;12.630;2023-02-01T03:17:22;6.40;99.90
16229;DHT22;8222;51.462;12.630;2023-02-01T03:19:52;7.20;99.90
16229;DHT22;8222;51.462;12.630;2023-02-01T03:22:20;6.60;99.90
16229;DHT22;8222;51.462;12.630;2023-02-01T03:24:54;6.60;99.90
16229;DHT22;8222;51.462;12.630;2023-02-01T03:27:29;6.70;99.90
16229;DHT22;8222;51.462;12.630;2023-02-01T03:32:34;6.40;99.90
16229;DHT22;8222;51.462;12.630;2023-02-01T03:35:28;6.30;99.90
16229;DHT22;8222;51.462;12.630;2023-02-01T03:38:01;6.30;99.90
16229;DHT22;8222;51.462;12.630;2023-02-01T03:40:30;6.40;99.90
16229;DHT22;8222;51.462;12.630;2023-02-01T03:42:59;6.30;99.90
16229;DHT22;8222;51.462;12.630;2023-02-01T03:45:31;6.20;99.90
16229;DHT22;8222;51.462;12.630;2023-02-01T03:48:00;6.20;99.90
16229;DHT22;8222;51.462;12.630;2023-02-01T03:50:29;6.40;99.90
16229;DHT22;8222;51.462;12.630;2023-02-01T03:55:25;6.20;99.90
16229;DHT22;8222;51.462;12.630;2023-02-01T03:58:12;6.20;99.90
16229;DHT22;8222;51.462;12.630;2023-02-01T04:00:39;6.20;99.90
16229;DHT22;8222;51.462;12.630;2023-02-01T04:03:06;6.10;99.90
16229;DHT22;8222;51.462;12.630;2023-02-01T04:05:32;6.20;99.90
16229;DHT22;8222;51.462;12.630;2023-02-01T04:08:00;6.30;99.90
16229;DHT22;8222;51.462;12.630;2023-02-01T04:10:26;6.20;99.90
16229;DHT22;8222;51.462;12.630;2023-02-01T04:12:51;6.20;99.90
16229;DHT22;8222;51.462;12.630;2023-02-01T04:15:19;6.20;99.90
16229;DHT22;8222;51.462;12.630;2023-02-01T04:17:45;6.20;99.90
16229;DHT22;8222;51.462;12.630;2023-02-01T04:20:10;6.30;99.90
16229;DHT22;8222;51.462;12.630;2023-02-01T04:22:36;6.30;99.90
16229;DHT22;8222;51.462;12.630;2023-02-01T04:25:03;6.30;99.90
16229;DHT22;8222;51.462;12.630;2023-02-01T04:27:31;6.30;99.90
16229;DHT22;8222;51.462;12.630;2023-02-01T04:29:58;6.40;99.90
16229;DHT22;8222;51.462;12.630;2023-02-01T04:32:24;6.20;99.90
16229;DHT22;8222;51.462;12.630;2023-02-01T04:34:49;6.20;99.90
16229;DHT22;8222;51.462;12.630;2023-02-01T04:37:17;6.40;99.90
16229;DHT22;8222;51.462;12.630;2023-02-01T04:39:42;6.30;99.90
16229;DHT22;8222;51.462;12.630;2023-02-01T04:42:08;6.30;99.90
16229;DHT22;8222;51.462;12.630;2023-02-01T04:44:34;6.20;99.90
16229;DHT22;8222;51.462;12.630;2023-02-01T04:47:02;6.30;99.90
16229;DHT22;8222;51.462;12.630;2023-02-01T04:49:28;6.30;99.90
16229;DHT22;8222;51.462;12.630;2023-02-01T04:51:53;6.50;99.90
16229;DHT22;8222;51.462;12.630;2023-02-01T04:54:19;6.30;99.90
16229;DHT22;8222;51.462;12.630;2023-02-01T04:56:44;6.30;99.90
16229;DHT22;8222;51.462;12.630;2023-02-01T04:59:11;6.20;99.90
16229;DHT22;8222;51.462;12.630;2023-02-01T05:01:39;6.30;99.90
16229;DHT22;8222;51.462;12.630;2023-02-01T05:04:05;6.40;99.90
16229;DHT22;8222;51.462;12.630;2023-02-01T05:06:30;6.30;99.90
16229;DHT22;8222;51.462;12.630;2023-02-01T05:08:56;6.10;99.90
16229;DHT22;8222;51.462;12.630;2023-02-01T05:11:23;6.20;99.90
16229;DHT22;8222;51.462;12.630;2023-02-01T05:14:15;6.10;99.90
16229;DHT22;8222;51.462;12.630;2023-02-01T05:16:41;6.00;99.90
16229;DHT22;8222;51.462;12.630;2023-02-01T05:19:06;6.70;99.90
16229;DHT22;8222;51.462;12.630;2023-02-01T05:21:32;6.10;99.90
16229;DHT22;8222;51.462;12.630;2023-02-01T05:23:58;6.10;99.90
16229;DHT22;8222;51.462;12.630;2023-02-01T05:26:39;6.00;99.90
16229;DHT22;8222;51.462;12.630;2023-02-01T05:29:06;6.10;99.90
16229;DHT22;8222;51.462;12.630;2023-02-01T05:31:32;6.10;99.90
16229;DHT22;8222;51.462;12.630;2023-02-01T05:33:57;6.20;99.90
16229;DHT22;8222;51.462;12.630;2023-02-01T05:36:23;6.10;99.90
16229;DHT22;8222;51.462;12.630;2023-02-01T05:38:49;6.00;99.90
16229;DHT22;8222;51.462;12.630;2023-02-01T05:41:14;6.20;99.90
16229;DHT22;8222;51.462;12.630;2023-02-01T05:43:40;6.10;99.90
16229;DHT22;8222;51.462;12.630;2023-02-01T05:46:06;6.20;99.90
16229;DHT22;8222;51.462;12.630;2023-02-01T05:48:31;6.10;99.90
16229;DHT22;8222;51.462;12.630;2023-02-01T05:50:59;6.00;99.90
16229;DHT22;8222;51.462;12.630;2023-02-01T05:53:24;6.10;99.90
16229;DHT22;8222;51.462;12.630;2023-02-01T05:55:50;6.20;99.90
16229;DHT22;8222;51.462;12.630;2023-02-01T05:58:15;6.10;99.90
16229;DHT22;8222;51.462;12.630;2023-02-01T06:00:41;6.00;99.90
16229;DHT22;8222;51.462;12.630;2023-02-01T06:03:07;6.00;99.90
16229;DHT22;8222;51.462;12.630;2023-02-01T06:05:34;6.10;99.90
16229;DHT22;8222;51.462;12.630;2023-02-01T06:08:00;6.10;99.90
16229;DHT22;8222;51.462;12.630;2023-02-01T06:10:25;6.30;99.90
16229;DHT22;8222;51.462;12.630;2023-02-01T06:12:51;5.90;99.90
16229;DHT22;8222;51.462;12.630;2023-02-01T06:15:16;5.90;99.90
16229;DHT22;8222;51.462;12.630;2023-02-01T06:17:45;6.60;99.90
16229;DHT22;8222;51.462;12.630;2023-02-01T06:20:12;6.00;99.90
16229;DHT22;8222;51.462;12.630;2023-02-01T06:22:39;5.90;99.90
16229;DHT22;8222;51.462;12.630;2023-02-01T06:25:06;6.00;99.90
16229;DHT22;8222;51.462;12.630;2023-02-01T06:27:32;6.10;99.90
16229;DHT22;8222;51.462;12.630;2023-02-01T06:29:58;6.30;99.90
16229;DHT22;8222;51.462;12.630;2023-02-01T06:32:26;6.20;99.90
16229;DHT22;8222;51.462;12.630;2023-02-01T06:34:52;6.40;99.90
16229;DHT22;8222;51.462;12.630;2023-02-01T06:37:19;6.10;99.90
16229;DHT22;8222;51.462;12.630;2023-02-01T06:39:46;6.00;99.90
16229;DHT22;8222;51.462;12.630;2023-02-01T06:42:12;6.20;99.90
16229;DHT22;8222;51.462;12.630;2023-02-01T06:44:37;6.20;99.90
16229;DHT22;8222;51.462;12.630;2023-02-01T06:47:04;6.30;99.90
16229;DHT22;8222;51.462;12.630;2023-02-01T06:49:29;6.20;99.90
16229;DHT22;8222;51.462;12.630;2023-02-01T06:51:55;6.20;99.90
16229;DHT22;8222;51.462;12.630;2023-02-01T06:54:21;6.80;99.90
16229;DHT22;8222;51.462;12.630;2023-02-01T06:56:46;6.10;99.90
16229;DHT22;8222;51.462;12.630;2023-02-01T06:59:12;6.10;99.90
16229;DHT22;8222;51.462;12.630;2023-02-01T07:01:39;6.50;99.90
16229;DHT22;8222;51.462;12.630;2023-02-01T07:04:05;6.30;99.90
16229;DHT22;8222;51.462;12.630;2023-02-01T07:06:33;6.30;99.90
16229;DHT22;8222;51.462;12.630;2023-02-01T07:08:59;6.40;99.90
16229;DHT22;8222;51.462;12.630;2023-02-01T07:11:26;6.40;99.90
16229;DHT22;8222;51.462;12.630;2023-02-01T07:13:53;6.50;99.90
16229;DHT22;8222;51.462;12.630;2023-02-01T07:16:20;6.50;99.90
16229;DHT22;8222;51.462;12.630;2023-02-01T07:18:47;6.50;99.90
16229;DHT22;8222;51.462;12.630;2023-02-01T07:21:14;6.70;99.90
16229;DHT22;8222;51.462;12.630;2023-02-01T07:23:40;6.70;99.90
16229;DHT22;8222;51.462;12.630;2023-02-01T07:26:07;6.80;99.90
16229;DHT22;8222;51.462;12.630;2023-02-01T07:28:34;6.80;99.90
16229;DHT22;8222;51.462;12.630;2023-02-01T07:31:08;6.90;99.90
16229;DHT22;8222;51.462;12.630;2023-02-01T07:33:34;6.80;99.90
16229;DHT22;8222;51.462;12.630;2023-02-01T07:36:03;6.90;99.90
16229;DHT22;8222;51.462;12.630;2023-02-01T07:38:29;6.80;99.90
16229;DHT22;8222;51.462;12.630;2023-02-01T07:41:00;6.70;99.90
16229;DHT22;8222;51.462;12.630;2023-02-01T07:43:27;6.70;99.90
16229;DHT22;8222;51.462;12.630;2023-02-01T07:45:56;6.80;99.90
16229;DHT22;8222;51.462;12.630;2023-02-01T07:48:23;6.70;99.90
16229;DHT22;8222;51.462;12.630;2023-02-01T07:51:08;7.10;99.90
16229;DHT22;8222;51.462;12.630;2023-02-01T07:53:34;6.70;99.90
16229;DHT22;8222;51.462;12.630;2023-02-01T07:56:00;6.80;99.90
16229;DHT22;8222;51.462;12.630;2023-02-01T07:58:26;6.80;99.90
16229;DHT22;8222;51.462;12.630;2023-02-01T08:00:55;6.90;99.90
16229;DHT22;8222;51.462;12.630;2023-02-01T08:03:41;7.00;99.90
16229;DHT22;8222;51.462;12.630;2023-02-01T08:06:07;7.20;99.90
16229;DHT22;8222;51.462;12.630;2023-02-01T08:08:33;7.10;99.90
16229;DHT22;8222;51.462;12.630;2023-02-01T08:11:00;7.10;99.90
16229;DHT22;8222;51.462;12.630;2023-02-01T08:13:27;7.20;99.90
16229;DHT22;8222;51.462;12.630;2023-02-01T08:15:52;7.20;99.90
16229;DHT22;8222;51.462;12.630;2023-02-01T08:18:22;7.20;99.90
16229;DHT22;8222;51.462;12.630;2023-02-01T08:20:48;7.20;99.90
16229;DHT22;8222;51.462;12.630;2023-02-01T08:23:15;8.00;99.90
16229;DHT22;8222;51.462;12.630;2023-02-01T08:25:40;7.30;99.90
16229;DHT22;8222;51.462;12.630;2023-02-01T08:28:07;7.60;99.90
16229;DHT22;8222;51.462;12.630;2023-02-01T08:30:33;7.60;99.90
16229;DHT22;8222;51.462;12.630;2023-02-01T08:32:59;7.50;99.90
16229;DHT22;8222;51.462;12.630;2023-02-01T08:35:24;7.30;99.90
16229;DHT22;8222;51.462;12.630;2023-02-01T08:37:50;7.30;99.90
16229;DHT22;8222;51.462;12.630;2023-02-01T08:40:17;7.40;99.90
16229;DHT22;8222;51.462;12.630;2023-02-01T08:42:43;7.30;99.90
16229;DHT22;8222;51.462;12.630;2023-02-01T08:45:22;7.90;99.90
16229;DHT22;8222;51.462;12.630;2023-02-01T08:47:51;7.60;99.90
16229;DHT22;8222;51.462;12.630;2023-02-01T08:50:17;7.60;99.90
16229;DHT22;8222;51.462;12.630;2023-02-01T08:52:43;7.50;99.90
16229;DHT22;8222;51.462;12.630;2023-02-01T08:55:10;7.50;99.90
16229;DHT22;8222;51.462;12.630;2023-02-01T08:57:35;7.40;99.90
16229;DHT22;8222;51.462;12.630;2023-02-01T09:00:14;7.20;99.90
16229;DHT22;8222;51.462;12.630;2023-02-01T09:02:41;6.90;99.90
16229;DHT22;8222;51.462;12.630;2023-02-01T09:05:07;6.90;99.90
16229;DHT22;8222;51.462;12.630;2023-02-01T09:07:33;6.80;99.90
16229;DHT22;8222;51.462;12.630;2023-02-01T09:09:59;6.70;99.90
16229;DHT22;8222;51.462;12.630;2023-02-01T09:12:28;6.50;99.90
16229;DHT22;8222;51.462;12.630;2023-02-01T09:14:55;6.30;99.90
16229;DHT22;8222;51.462;12.630;2023-02-01T09:17:21;6.20;99.90
16229;DHT22;8222;51.462;12.630;2023-02-01T09:19:46;6.30;99.90
16229;DHT22;8222;51.462;12.630;2023-02-01T09:22:15;6.30;99.90
16229;DHT22;8222;51.462;12.630;2023-02-01T09:24:41;6.30;99.90
16229;DHT22;8222;51.462;12.630;2023-02-01T09:27:07;6.30;99.90
16229;DHT22;8222;51.462;12.630;2023-02-01T09:29:33;6.40;99.90
16229;DHT22;8222;51.462;12.630;2023-02-01T09:31:58;6.60;99.90
16229;DHT22;8222;51.462;12.630;2023-02-01T09:34:26;6.60;99.90
16229;DHT22;8222;51.462;12.630;2023-02-01T09:36:52;6.60;99.90
16229;DHT22;8222;51.462;12.630;2023-02-01T09:39:17;6.60;99.90
16229;DHT22;8222;51.462;12.630;2023-02-01T09:41:57;6.70;99.90
16229;DHT22;8222;51.462;12.630;2023-02-01T09:47:29;6.80;99.90
16229;DHT22;8222;51.462;12.630;2023-02-01T09:50:11;6.90;99.90
16229;DHT22;8222;51.462;12.630;2023-02-01T10:01:23;7.10;99.90
16229;DHT22;8222;51.462;12.630;2023-02-01T10:03:53;7.10;99.90
16229;DHT22;8222;51.462;12.630;2023-02-01T10:09:01;7.60;99.90
16229;DHT22;8222;51.462;12.630;2023-02-01T10:12:04;7.70;99.90
16229;DHT22;8222;51.462;12.630;2023-02-01T10:17:56;8.10;99.90
16229;DHT22;8222;51.462;12.630;2023-02-01T10:25:54;8.20;99.90
16229;DHT22;8222;51.462;12.630;2023-02-01T10:28:21;8.30;99.90
16229;DHT22;8222;51.462;12.630;2023-02-01T10:30:49;8.50;99.90
16229;DHT22;8222;51.462;12.630;2023-02-01T10:36:11;8.50;99.90
16229;DHT22;8222;51.462;12.630;2023-02-01T10:38:38;8.80;99.90
16229;DHT22;8222;51.462;12.630;2023-02-01T10:41:29;8.90;99.90
16229;DHT22;8222;51.462;12.630;2023-02-01T10:44:00;8.90;99.90
16229;DHT22;8222;51.462;12.630;2023-02-01T10:46:27;9.00;99.90
16229;DHT22;8222;51.462;12.630;2023-02-01T10:48:55;9.10;99.90
16229;DHT22;8222;51.462;12.630;2023-02-01T10:51:26;8.70;99.90
16229;DHT22;8222;51.462;12.630;2023-02-01T10:54:03;9.00;99.90
16229;DHT22;8222;51.462;12.630;2023-02-01T10:56:30;7.70;99.90
16229;DHT22;8222;51.462;12.630;2023-02-01T10:59:05;7.30;99.90
16229;DHT22;8222;51.462;12.630;2023-02-01T11:01:39;7.10;99.90
16229;DHT22;8222;51.462;12.630;2023-02-01T11:04:11;7.00;99.90
16229;DHT22;8222;51.462;12.630;2023-02-01T11:06:40;7.00;99.90
16229;DHT22;8222;51.462;12.630;2023-02-01T11:09:29;7.70;99.90
16229;DHT22;8222;51.462;12.630;2023-02-01T11:11:59;7.50;99.90
16229;DHT22;8222;51.462;12.630;2023-02-01T11:17:26;8.00;99.90
16229;DHT22;8222;51.462;12.630;2023-02-01T11:20:08;8.20;99.90
16229;DHT22;8222;51.462;12.630;2023-02-01T11:22:37;8.60;99.90
16229;DHT22;8222;51.462;12.630;2023-02-01T11:25:09;8.70;99.90
16229;DHT22;8222;51.462;12.630;2023-02-01T11:27:43;8.90;99.90
16229;DHT22;8222;51.462;12.630;2023-02-01T11:30:36;9.20;99.90
16229;DHT22;8222;51.462;12.630;2023-02-01T11:33:03;9.30;99.90
16229;DHT22;8222;51.462;12.630;2023-02-01T11:35:29;9.00;99.90
16229;DHT22;8222;51.462;12.630;2023-02-01T11:37:57;8.80;99.90
16229;DHT22;8222;51.462;12.630;2023-02-01T11:40:29;8.50;99.90
16229;DHT22;8222;51.462;12.630;2023-02-01T11:46:03;8.40;99.90
16229;DHT22;8222;51.462;12.630;2023-02-01T11:48:31;8.50;99.90
16229;DHT22;8222;51.462;12.630;2023-02-01T11:54:07;8.40;99.90
16229;DHT22;8222;51.462;12.630;2023-02-01T12:07:30;8.50;99.90
16229;DHT22;8222;51.462;12.630;2023-02-01T12:12:50;8.60;99.90
16229;DHT22;8222;51.462;12.630;2023-02-01T12:21:18;9.10;99.90
16229;DHT22;8222;51.462;12.630;2023-02-01T12:24:11;9.00;99.90
16229;DHT22;8222;51.462;12.630;2023-02-01T12:30:19;9.10;99.90
16229;DHT22;8222;51.462;12.630;2023-02-01T12:44:01;9.10;99.90
16229;DHT22;8222;51.462;12.630;2023-02-01T12:46:43;9.00;99.90
16229;DHT22;8222;51.462;12.630;2023-02-01T12:49:17;8.90;99.90
16229;DHT22;8222;51.462;12.630;2023-02-01T12:51:47;9.10;99.90
16229;DHT22;8222;51.462;12.630;2023-02-01T12:54:26;9.20;99.90
16229;DHT22;8222;51.462;12.630;2023-02-01T12:57:00;9.20;99.90
16229;DHT22;8222;51.462;12.630;2023-02-01T13:00:12;9.30;99.90
16229;DHT22;8222;51.462;12.630;2023-02-01T13:02:44;9.30;99.90
16229;DHT22;8222;51.462;12.630;2023-02-01T13:05:22;9.20;99.90
16229;DHT22;8222;51.462;12.630;2023-02-01T13:08:14;9.30;99.90
16229;DHT22;8222;51.462;12.630;2023-02-01T13:10:45;9.20;99.90
16229;DHT22;8222;51.462;12.630;2023-02-01T13:13:36;9.30;99.90
16229;DHT22;8222;51.462;12.630;2023-02-01T13:16:14;9.40;99.90
16229;DHT22;8222;51.462;12.630;2023-02-01T13:18:46;9.50;99.90
16229;DHT22;8222;51.462;12.630;2023-02-01T13:21:21;9.40;99.90
16229;DHT22;8222;51.462;12.630;2023-02-01T13:23:50;9.40;99.90
16229;DHT22;8222;51.462;12.630;2023-02-01T13:26:17;9.40;99.90
16229;DHT22;8222;51.462;12.630;2023-02-01T13:28:52;9.40;99.90
16229;DHT22;8222;51.462;12.630;2023-02-01T13:36:52;9.30;99.90
16229;DHT22;8222;51.462;12.630;2023-02-01T13:45:26;9.10;99.90
16229;DHT22;8222;51.462;12.630;2023-02-01T13:47:55;9.00;99.90
16229;DHT22;8222;51.462;12.630;2023-02-01T13:50:33;9.00;99.90
16229;DHT22;8222;51.462;12.630;2023-02-01T13:53:04;9.00;99.90
16229;DHT22;8222;51.462;12.630;2023-02-01T13:55:36;8.90;99.90
16229;DHT22;8222;51.462;12.630;2023-02-01T14:00:39;8.70;99.90
16229;DHT22;8222;51.462;12.630;2023-02-01T14:13:39;8.50;99.90
16229;DHT22;8222;51.462;12.630;2023-02-01T14:23:55;8.50;99.90
16229;DHT22;8222;51.462;12.630;2023-02-01T14:26:26;8.50;99.90
16229;DHT22;8222;51.462;12.630;2023-02-01T14:34:22;8.60;99.90
16229;DHT22;8222;51.462;12.630;2023-02-01T14:37:10;8.50;99.90
16229;DHT22;8222;51.462;12.630;2023-02-01T14:42:26;8.60;99.90
16229;DHT22;8222;51.462;12.630;2023-02-01T14:44:55;8.50;99.90
16229;DHT22;8222;51.462;12.630;2023-02-01T14:52:51;8.70;99.90
16229;DHT22;8222;51.462;12.630;2023-02-01T14:55:37;8.70;99.90
16229;DHT22;8222;51.462;12.630;2023-02-01T14:58:55;9.30;99.90
16229;DHT22;8222;51.462;12.630;2023-02-01T15:01:31;8.60;99.90
16229;DHT22;8222;51.462;12.630;2023-02-01T15:09:14;8.60;99.90
16229;DHT22;8222;51.462;12.630;2023-02-01T15:12:15;8.60;99.90
16229;DHT22;8222;51.462;12.630;2023-02-01T15:14:46;8.60;99.90
16229;DHT22;8222;51.462;12.630;2023-02-01T15:17:31;8.50;99.90
16229;DHT22;8222;51.462;12.630;2023-02-01T15:20:15;8.60;99.90
16229;DHT22;8222;51.462;12.630;2023-02-01T15:22:42;8.20;99.90
16229;DHT22;8222;51.462;12.630;2023-02-01T15:25:21;7.90;99.90
16229;DHT22;8222;51.462;12.630;2023-02-01T15:27:47;8.00;99.90
16229;DHT22;8222;51.462;12.630;2023-02-01T15:30:20;8.10;99.90
16229;DHT22;8222;51.462;12.630;2023-02-01T15:32:47;7.70;99.90
16229;DHT22;8222;51.462;12.630;2023-02-01T15:35:42;7.90;99.90
16229;DHT22;8222;51.462;12.630;2023-02-01T15:46:24;8.00;99.90
16229;DHT22;8222;51.462;12.630;2023-02-01T15:48:55;7.20;99.90
16229;DHT22;8222;51.462;12.630;2023-02-01T15:51:27;7.00;99.90
16229;DHT22;8222;51.462;12.630;2023-02-01T15:54:00;6.70;99.90
16229;DHT22;8222;51.462;12.630;2023-02-01T15:56:39;6.30;99.90
16229;DHT22;8222;51.462;12.630;2023-02-01T15:59:14;6.10;99.90
16229;DHT22;8222;51.462;12.630;2023-02-01T16:01:40;6.50;99.90
16229;DHT22;8222;51.462;12.630;2023-02-01T16:04:22;5.90;99.90
16229;DHT22;8222;51.462;12.630;2023-02-01T16:06:52;5.80;99.90
16229;DHT22;8222;51.462;12.630;2023-02-01T16:09:22;5.60;99.90
16229;DHT22;8222;51.462;12.630;2023-02-01T16:14:17;5.40;99.90
16229;DHT22;8222;51.462;12.630;2023-02-01T16:16:43;5.30;99.90
16229;DHT22;8222;51.462;12.630;2023-02-01T16:19:09;5.20;99.90
16229;DHT22;8222;51.462;12.630;2023-02-01T16:21:34;5.10;99.90
16229;DHT22;8222;51.462;12.630;2023-02-01T16:24:03;5.00;99.90
16229;DHT22;8222;51.462;12.630;2023-02-01T16:26:33;5.00;99.90
16229;DHT22;8222;51.462;12.630;2023-02-01T16:28:59;4.90;99.90
16229;DHT22;8222;51.462;12.630;2023-02-01T16:31:30;4.80;99.90
16229;DHT22;8222;51.462;12.630;2023-02-01T16:33:57;4.70;99.90
16229;DHT22;8222;51.462;12.630;2023-02-01T16:36:25;4.50;99.90
16229;DHT22;8222;51.462;12.630;2023-02-01T16:38:51;4.40;99.90
16229;DHT22;8222;51.462;12.630;2023-02-01T16:41:20;4.40;99.90
16229;DHT22;8222;51.462;12.630;2023-02-01T16:43:50;4.50;99.90
16229;DHT22;8222;51.462;12.630;2023-02-01T16:46:18;4.70;99.90
16229;DHT22;8222;51.462;12.630;2023-02-01T16:48:50;4.50;99.90
16229;DHT22;8222;51.462;12.630;2023-02-01T16:51:17;4.60;99.90
16229;DHT22;8222;51.462;12.630;2023-02-01T16:53:45;4.50;99.90
16229;DHT22;8222;51.462;12.630;2023-02-01T16:56:20;4.40;99.90
16229;DHT22;8222;51.462;12.630;2023-02-01T16:58:46;4.40;99.90
16229;DHT22;8222;51.462;12.630;2023-02-01T17:01:17;4.40;99.90
16229;DHT22;8222;51.462;12.630;2023-02-01T17:03:44;4.50;99.90
16229;DHT22;8222;51.462;12.630;2023-02-01T17:06:14;4.50;99.90
16229;DHT22;8222;51.462;12.630;2023-02-01T17:08:42;4.60;99.90
16229;DHT22;8222;51.462;12.630;2023-02-01T17:11:11;4.60;99.90
16229;DHT22;8222;51.462;12.630;2023-02-01T17:13:39;4.70;99.90
16229;DHT22;8222;51.462;12.630;2023-02-01T17:18:47;4.60;99.90
16229;DHT22;8222;51.462;12.630;2023-02-01T17:21:15;4.70;99.90
16229;DHT22;8222;51.462;12.630;2023-02-01T17:23:43;4.70;99.90
16229;DHT22;8222;51.462;12.630;2023-02-01T17:26:10;4.80;99.90
16229;DHT22;8222;51.462;12.630;2023-02-01T17:28:36;4.80;99.90
16229;DHT22;8222;51.462;12.630;2023-02-01T17:31:04;5.00;99.90
16229;DHT22;8222;51.462;12.630;2023-02-01T17:33:35;4.60;99.90
16229;DHT22;8222;51.462;12.630;2023-02-01T17:36:02;4.70;99.90
16229;DHT22;8222;51.462;12.630;2023-02-01T17:38:30;4.50;99.90
16229;DHT22;8222;51.462;12.630;2023-02-01T17:40:55;4.50;99.90
16229;DHT22;8222;51.462;12.630;2023-02-01T17:43:23;4.40;99.90
16229;DHT22;8222;51.462;12.630;2023-02-01T17:45:55;4.40;99.90
16229;DHT22;8222;51.462;12.630;2023-02-01T17:48:23;4.40;99.90
16229;DHT22;8222;51.462;12.630;2023-02-01T17:50:50;5.00;99.90
16229;DHT22;8222;51.462;12.630;2023-02-01T17:53:19;4.50;99.90
16229;DHT22;8222;51.462;12.630;2023-02-01T17:55:49;4.50;99.90
16229;DHT22;8222;51.462;12.630;2023-02-01T17:58:15;4.60;99.90
16229;DHT22;8222;51.462;12.630;2023-02-01T18:00:42;4.50;99.90
16229;DHT22;8222;51.462;12.630;2023-02-01T18:03:28;4.40;99.90
16229;DHT22;8222;51.462;12.630;2023-02-01T18:05:56;4.60;99.90
16229;DHT22;8222;51.462;12.630;2023-02-01T18:08:25;4.50;99.90
16229;DHT22;8222;51.462;12.630;2023-02-01T18:10:56;4.60;99.90
16229;DHT22;8222;51.462;12.630;2023-02-01T18:13:29;4.50;99.90
16229;DHT22;8222;51.462;12.630;2023-02-01T18:15:57;4.60;99.90
16229;DHT22;8222;51.462;12.630;2023-02-01T18:18:27;4.40;99.90
16229;DHT22;8222;51.462;12.630;2023-02-01T18:20:55;4.40;99.90
16229;DHT22;8222;51.462;12.630;2023-02-01T18:23:23;4.50;99.90
16229;DHT22;8222;51.462;12.630;2023-02-01T18:25:50;4.50;99.90
16229;DHT22;8222;51.462;12.630;2023-02-01T18:28:17;4.40;99.90
16229;DHT22;8222;51.462;12.630;2023-02-01T18:30:45;4.40;99.90
16229;DHT22;8222;51.462;12.630;2023-02-01T18:33:15;4.50;99.90
16229;DHT22;8222;51.462;12.630;2023-02-01T18:35:41;4.50;99.90
16229;DHT22;8222;51.462;12.630;2023-02-01T18:38:08;4.70;99.90
16229;DHT22;8222;51.462;12.630;2023-02-01T18:40:52;4.80;99.90
16229;DHT22;8222;51.462;12.630;2023-02-01T18:43:19;4.80;99.90
16229;DHT22;8222;51.462;12.630;2023-02-01T18:45:46;4.90;99.90
16229;DHT22;8222;51.462;12.630;2023-02-01T18:48:14;5.00;99.90
16229;DHT22;8222;51.462;12.630;2023-02-01T18:50:42;5.00;99.90
16229;DHT22;8222;51.462;12.630;2023-02-01T18:53:17;5.00;99.90
16229;DHT22;8222;51.462;12.630;2023-02-01T18:55:48;5.00;99.90
16229;DHT22;8222;51.462;12.630;2023-02-01T18:58:15;5.00;99.90